Time;durP1;ratioP1;P1;durP2;ratioP2;P2;SDS_P1;SDS_P2;PMS_P1;PMS_P2;Temp;Humidity;BMP_temperature;BMP_pressure;BME280_temperature;BME280_humidity;BME280_pressure;Samples;Min_cycle;Max_cycle;Signal;HPM_P1;HPM_P2
2023/11/01 00:01:12;;;;;;;0.00;0.00;;;2.40;100.00;;;;;;4946329;28;20141;-70
2023/11/01 00:03:39;;;;;;;0.00;0.00;;;2.40;100.00;;;;;;4945666;28;20077;-70
2023/11/01 00:06:06;;;;;;;0.00;0.00;;;2.40;100.00;;;;;;4945433;28;20090;-70
2023/11/01 00:08:33;;;;;;;0.00;0.00;;;2.30;100.00;;;;;;4946675;28;20182;-70
2023/11/01 00:11:00;;;;;;;0.00;0.00;;;2.30;100.00;;;;;;4946422;28;20051;-70
2023/11/01 00:13:27;;;;;;;0.00;0.00;;;2.20;100.00;;;;;;4945398;28;20597;-71
2023/11/01 00:15:54;;;;;;;0.00;0.00;;;2.20;100.00;;;;;;4946091;28;20131;-70
2023/11/01 00:18:21;;;;;;;0.00;0.00;;;2.20;100.00;;;;;;4946340;28;20134;-70
2023/11/01 00:20:48;;;;;;;0.00;0.00;;;2.20;100.00;;;;;;4946554;28;20062;-70
2023/11/01 00:23:15;;;;;;;0.00;0.00;;;2.20;100.00;;;;;;4946696;28;20051;-70
2023/11/01 00:25:42;;;;;;;0.00;0.00;;;2.20;100.00;;;;;;4946797;28;20054;-70
2023/11/01 00:28:09;;;;;;;0.00;0.00;;;2.10;100.00;;;;;;4945903;28;20054;-70
2023/11/01 00:30:36;;;;;;;0.00;0.00;;;2.10;100.00;;;;;;4946317;28;20055;-70
2023/11/01 00:33:03;;;;;;;0.00;0.00;;;2.10;100.00;;;;;;4946090;28;20051;-70
2023/11/01 00:35:30;;;;;;;0.00;0.00;;;2.10;100.00;;;;;;4946253;28;21200;-70
2023/11/01 00:37:57;;;;;;;0.00;0.00;;;2.10;100.00;;;;;;4944182;28;20055;-70
2023/11/01 00:40:24;;;;;;;0.00;0.00;;;2.00;100.00;;;;;;4945113;28;20047;-70
2023/11/01 00:42:51;;;;;;;0.00;0.00;;;2.00;100.00;;;;;;4945434;28;20058;-71
2023/11/01 00:45:18;;;;;;;0.00;0.00;;;2.00;100.00;;;;;;4945146;28;20051;-70
2023/11/01 00:47:44;;;;;;;0.00;0.00;;;1.90;100.00;;;;;;4954414;28;20066;-72
2023/11/01 00:50:11;;;;;;;0.00;0.00;;;1.90;100.00;;;;;;4946110;28;20058;-70
2023/11/01 00:52:38;;;;;;;0.00;0.00;;;1.90;100.00;;;;;;4946021;28;20054;-72
2023/11/01 00:55:06;;;;;;;0.00;0.00;;;1.90;100.00;;;;;;4944219;28;20078;-70
2023/11/01 00:57:33;;;;;;;0.00;0.00;;;1.80;100.00;;;;;;4946094;28;20059;-72
2023/11/01 01:00:00;;;;;;;0.00;0.00;;;1.80;100.00;;;;;;4945439;28;20121;-70
2023/11/01 01:02:27;;;;;;;0.00;0.00;;;1.70;100.00;;;;;;4945880;28;20055;-70
2023/11/01 01:04:54;;;;;;;0.00;0.00;;;1.70;100.00;;;;;;4944914;28;20066;-72
2023/11/01 01:07:22;;;;;;;0.00;0.00;;;1.70;100.00;;;;;;4954687;28;20054;-72
2023/11/01 01:09:49;;;;;;;0.00;0.00;;;1.60;100.00;;;;;;4943822;28;20055;-72
2023/11/01 01:12:16;;;;;;;0.00;0.00;;;1.60;100.00;;;;;;4943286;28;20058;-72
2023/11/01 01:14:43;;;;;;;0.00;0.00;;;1.60;100.00;;;;;;4942972;28;20058;-70
2023/11/01 01:17:10;;;;;;;0.00;0.00;;;1.60;100.00;;;;;;4958982;28;20059;-73
2023/11/01 01:19:37;;;;;;;0.00;0.00;;;1.60;100.00;;;;;;4945969;28;20696;-70
2023/11/01 01:22:04;;;;;;;0.00;0.00;;;1.50;100.00;;;;;;4945680;28;20556;-70
2023/11/01 01:24:30;;;;;;;0.00;0.00;;;1.50;100.00;;;;;;4945302;28;20231;-70
2023/11/01 01:26:57;;;;;;;0.00;0.00;;;1.50;100.00;;;;;;4943819;28;20078;-72
2023/11/01 01:29:24;;;;;;;0.00;0.00;;;1.50;100.00;;;;;;4945313;28;20081;-72
2023/11/01 01:31:51;;;;;;;0.00;0.00;;;1.50;100.00;;;;;;4944748;28;20055;-72
2023/11/01 01:34:19;;;;;;;0.00;0.00;;;1.50;100.00;;;;;;4945771;28;20062;-72
2023/11/01 01:36:46;;;;;;;0.00;0.00;;;1.40;100.00;;;;;;4943602;28;20059;-72
2023/11/01 01:39:13;;;;;;;0.00;0.00;;;1.40;100.00;;;;;;4946939;28;20051;-79
2023/11/01 01:41:39;;;;;;;0.00;0.00;;;1.40;100.00;;;;;;4947842;28;20054;-79
2023/11/01 01:44:06;;;;;;;0.00;0.00;;;1.40;100.00;;;;;;4955800;28;20043;-77
2023/11/01 01:46:34;;;;;;;0.00;0.00;;;1.30;100.00;;;;;;4946829;28;20051;-79
2023/11/01 01:49:01;;;;;;;0.00;0.00;;;1.30;100.00;;;;;;4948041;28;20172;-79
2023/11/01 01:51:28;;;;;;;0.00;0.00;;;1.40;100.00;;;;;;4949463;28;20500;-79
2023/11/01 01:53:55;;;;;;;0.00;0.00;;;1.40;100.00;;;;;;4949185;28;20137;-77
2023/11/01 01:56:24;;;;;;;0.00;0.00;;;1.40;100.00;;;;;;4948770;28;20048;-79
2023/11/01 01:58:52;;;;;;;0.00;0.00;;;1.40;100.00;;;;;;4946706;28;20051;-77
2023/11/01 02:01:19;;;;;;;0.00;0.00;;;1.40;100.00;;;;;;4946603;28;20163;-79
2023/11/01 02:04:01;;;;;;;0.00;0.00;;;1.40;100.00;;;;;;4948624;28;20051;-79
2023/11/01 02:06:28;;;;;;;0.00;0.00;;;1.40;100.00;;;;;;4948420;28;20167;-78
2023/11/01 02:08:55;;;;;;;0.00;0.00;;;1.40;100.00;;;;;;4947913;28;20063;-78
2023/11/01 02:11:21;;;;;;;0.00;0.00;;;1.40;100.00;;;;;;4947251;28;20877;-78
2023/11/01 02:13:48;;;;;;;0.00;0.00;;;1.40;100.00;;;;;;4944650;28;20161;-79
2023/11/01 02:16:15;;;;;;;0.00;0.00;;;1.30;100.00;;;;;;4947615;28;20047;-78
2023/11/01 02:18:42;;;;;;;0.00;0.00;;;1.40;100.00;;;;;;4945560;28;20051;-78
2023/11/01 02:21:09;;;;;;;0.00;0.00;;;1.40;100.00;;;;;;4947774;28;20460;-78
2023/11/01 02:23:36;;;;;;;0.00;0.00;;;1.40;100.00;;;;;;4945760;28;20444;-79
2023/11/01 02:26:03;;;;;;;0.00;0.00;;;1.50;100.00;;;;;;4945947;28;20073;-78
2023/11/01 02:28:30;;;;;;;0.00;0.00;;;1.50;100.00;;;;;;4944714;28;20095;-79
2023/11/01 02:30:57;;;;;;;0.00;0.00;;;1.60;100.00;;;;;;4947469;28;20847;-78
2023/11/01 02:33:25;;;;;;;0.00;0.00;;;1.60;100.00;;;;;;4946796;28;20098;-78
2023/11/01 02:35:52;;;;;;;0.00;0.00;;;1.70;100.00;;;;;;4946946;28;20059;-76
2023/11/01 02:38:19;;;;;;;0.00;0.00;;;1.70;100.00;;;;;;4961613;28;20055;-79
2023/11/01 02:40:46;;;;;;;0.00;0.00;;;1.80;100.00;;;;;;4946036;28;20051;-78
2023/11/01 02:43:14;;;;;;;0.00;0.00;;;1.90;100.00;;;;;;4956307;28;20047;-78
2023/11/01 02:45:41;;;;;;;0.00;0.00;;;1.90;100.00;;;;;;4950214;28;20186;-78
2023/11/01 02:48:08;;;;;;;0.00;0.00;;;2.00;100.00;;;;;;4950892;28;20058;-78
2023/11/01 02:50:35;;;;;;;0.00;0.00;;;2.10;100.00;;;;;;4950661;28;20047;-78
2023/11/01 02:53:02;;;;;;;0.00;0.00;;;2.10;100.00;;;;;;4948521;28;20527;-78
2023/11/01 02:55:29;;;;;;;0.00;0.00;;;2.20;100.00;;;;;;4948773;28;20142;-78
2023/11/01 02:57:56;;;;;;;0.00;0.00;;;2.20;100.00;;;;;;4950576;28;20055;-78
2023/11/01 03:00:23;;;;;;;0.00;0.00;;;2.20;100.00;;;;;;4950479;28;20145;-78
2023/11/01 03:02:53;;;;;;;0.00;0.00;;;2.20;100.00;;;;;;4949552;28;20051;-78
2023/11/01 03:05:21;;;;;;;0.00;0.00;;;2.20;100.00;;;;;;4950012;28;20051;-78
2023/11/01 03:07:48;;;;;;;0.00;0.00;;;2.20;100.00;;;;;;4964209;28;20055;-78
2023/11/01 03:10:15;;;;;;;0.00;0.00;;;2.10;100.00;;;;;;4950292;28;20054;-78
2023/11/01 03:12:42;;;;;;;0.00;0.00;;;2.10;100.00;;;;;;4946866;28;20082;-79
2023/11/01 03:15:11;;;;;;;0.00;0.00;;;2.10;100.00;;;;;;4950508;28;20054;-78
2023/11/01 03:17:39;;;;;;;0.00;0.00;;;2.00;100.00;;;;;;4949006;28;20519;-76
2023/11/01 03:20:07;;;;;;;0.00;0.00;;;2.00;100.00;;;;;;4949930;28;20047;-76
2023/11/01 03:22:34;;;;;;;0.00;0.00;;;1.90;100.00;;;;;;4949484;28;20055;-76
2023/11/01 03:25:02;;;;;;;0.00;0.00;;;1.90;100.00;;;;;;4951134;28;20059;-76
2023/11/01 03:27:29;;;;;;;0.00;0.00;;;1.90;100.00;;;;;;4950058;28;20066;-77
2023/11/01 03:29:56;;;;;;;0.00;0.00;;;1.90;100.00;;;;;;4950443;28;21009;-78
2023/11/01 03:32:23;;;;;;;0.00;0.00;;;1.90;100.00;;;;;;4950316;28;20392;-78
2023/11/01 03:34:51;;;;;;;0.00;0.00;;;1.90;100.00;;;;;;4950927;28;20055;-78
2023/11/01 03:37:18;;;;;;;0.00;0.00;;;1.90;100.00;;;;;;4963315;28;20051;-76
2023/11/01 03:39:45;;;;;;;0.00;0.00;;;1.90;100.00;;;;;;4949050;28;20050;-76
2023/11/01 03:42:12;;;;;;;0.00;0.00;;;1.90;100.00;;;;;;4948362;28;20164;-76
2023/11/01 03:44:39;;;;;;;0.00;0.00;;;2.00;100.00;;;;;;4947730;28;20051;-76
2023/11/01 03:47:06;;;;;;;0.00;0.00;;;2.00;100.00;;;;;;4949061;28;20173;-76
2023/11/01 03:49:33;;;;;;;0.00;0.00;;;2.10;100.00;;;;;;4949612;28;20715;-76
2023/11/01 03:52:01;;;;;;;0.00;0.00;;;2.10;100.00;;;;;;4944673;28;20058;-78
2023/11/01 03:54:29;;;;;;;0.00;0.00;;;2.10;100.00;;;;;;4944777;28;20074;-76
2023/11/01 03:56:56;;;;;;;0.00;0.00;;;2.20;100.00;;;;;;4942225;28;20051;-76
2023/11/01 03:59:23;;;;;;;0.00;0.00;;;2.20;100.00;;;;;;4940118;28;20461;-78
2023/11/01 04:01:50;;;;;;;0.00;0.00;;;2.30;100.00;;;;;;4944775;28;20837;-77
2023/11/01 04:04:17;;;;;;;0.00;0.00;;;2.40;100.00;;;;;;4948608;28;20051;-76
2023/11/01 04:06:44;;;;;;;0.00;0.00;;;2.40;100.00;;;;;;4947976;28;20055;-76
2023/11/01 04:09:11;;;;;;;0.00;0.00;;;2.50;100.00;;;;;;4948246;28;20149;-78
2023/11/01 04:11:38;;;;;;;0.00;0.00;;;2.50;100.00;;;;;;4945153;28;20047;-77
2023/11/01 04:14:06;;;;;;;0.00;0.00;;;2.50;100.00;;;;;;4940842;28;20107;-77
2023/11/01 04:16:33;;;;;;;0.00;0.00;;;2.60;100.00;;;;;;4942698;28;20047;-76
2023/11/01 04:19:02;;;;;;;0.00;0.00;;;2.60;100.00;;;;;;4938914;28;20146;-78
2023/11/01 04:21:29;;;;;;;0.00;0.00;;;2.60;100.00;;;;;;4944711;28;20047;-78
2023/11/01 04:23:56;;;;;;;0.00;0.00;;;2.70;100.00;;;;;;4944027;28;20083;-78
2023/11/01 04:26:23;;;;;;;0.00;0.00;;;2.70;100.00;;;;;;4937480;28;20117;-78
2023/11/01 04:28:49;;;;;;;0.00;0.00;;;2.70;100.00;;;;;;4946011;28;20507;-78
2023/11/01 04:31:18;;;;;;;0.00;0.00;;;2.70;100.00;;;;;;4945213;28;20056;-78
2023/11/01 04:33:45;;;;;;;0.00;0.00;;;2.80;100.00;;;;;;4943986;28;20055;-78
2023/11/01 04:36:12;;;;;;;0.00;0.00;;;2.80;100.00;;;;;;4949360;28;20149;-78
2023/11/01 04:38:39;;;;;;;0.00;0.00;;;2.80;100.00;;;;;;4946714;28;20051;-78
2023/11/01 04:41:09;;;;;;;0.00;0.00;;;2.80;100.00;;;;;;4952254;28;20070;-78
2023/11/01 04:43:39;;;;;;;0.00;0.00;;;2.80;100.00;;;;;;4945948;28;20087;-78
2023/11/01 04:46:06;;;;;;;0.00;0.00;;;2.80;100.00;;;;;;4944496;28;20142;-76
2023/11/01 04:48:33;;;;;;;0.00;0.00;;;2.80;100.00;;;;;;4942272;28;20062;-76
2023/11/01 04:51:00;;;;;;;0.00;0.00;;;2.80;100.00;;;;;;4948024;28;20057;-78
2023/11/01 04:53:28;;;;;;;0.00;0.00;;;2.90;100.00;;;;;;4947003;28;20142;-78
2023/11/01 04:55:55;;;;;;;0.00;0.00;;;2.90;100.00;;;;;;4946938;28;20102;-79
2023/11/01 04:58:22;;;;;;;0.00;0.00;;;2.90;100.00;;;;;;4944673;28;20051;-78
2023/11/01 05:00:49;;;;;;;0.00;0.00;;;3.00;100.00;;;;;;4938628;28;20058;-78
2023/11/01 05:03:17;;;;;;;0.00;0.00;;;3.00;100.00;;;;;;4944355;28;20052;-77
2023/11/01 05:05:44;;;;;;;0.00;0.00;;;3.10;100.00;;;;;;4942699;28;20046;-78
2023/11/01 05:08:11;;;;;;;0.00;0.00;;;3.10;100.00;;;;;;4946927;28;20110;-78
2023/11/01 05:10:38;;;;;;;0.00;0.00;;;3.20;100.00;;;;;;4945603;28;20075;-78
2023/11/01 05:13:06;;;;;;;0.00;0.00;;;3.20;100.00;;;;;;4947090;28;20237;-76
2023/11/01 05:15:36;;;;;;;0.00;0.00;;;3.30;100.00;;;;;;4944442;28;20052;-76
2023/11/01 05:18:03;;;;;;;0.00;0.00;;;3.30;100.00;;;;;;4947622;28;20527;-78
2023/11/01 05:20:31;;;;;;;0.00;0.00;;;3.30;100.00;;;;;;4943474;28;20089;-78
2023/11/01 05:22:58;;;;;;;0.00;0.00;;;3.30;100.00;;;;;;4940166;28;20836;-77
2023/11/01 05:25:25;;;;;;;0.00;0.00;;;3.30;100.00;;;;;;4950859;28;20489;-78
2023/11/01 05:27:56;;;;;;;0.00;0.00;;;3.40;100.00;;;;;;4947389;28;20061;-78
2023/11/01 05:30:23;;;;;;;0.00;0.00;;;3.40;100.00;;;;;;4944718;28;20122;-78
2023/11/01 05:32:50;;;;;;;0.00;0.00;;;3.40;100.00;;;;;;4936967;28;20053;-78
2023/11/01 05:35:17;;;;;;;0.00;0.00;;;3.40;100.00;;;;;;4938816;28;20090;-78
2023/11/01 05:37:44;;;;;;;0.00;0.00;;;3.40;100.00;;;;;;4946692;28;20050;-78
2023/11/01 05:40:15;;;;;;;0.00;0.00;;;3.40;100.00;;;;;;4943492;28;20600;-79
2023/11/01 05:42:44;;;;;;;0.00;0.00;;;3.50;100.00;;;;;;4940154;28;20636;-78
2023/11/01 05:45:15;;;;;;;0.00;0.00;;;3.40;100.00;;;;;;4940909;28;20051;-78
2023/11/01 05:47:49;;;;;;;0.00;0.00;;;3.50;100.00;;;;;;4937785;28;20071;-77
2023/11/01 05:50:23;;;;;;;0.00;0.00;;;3.50;100.00;;;;;;4943944;28;20055;-78
2023/11/01 05:52:52;;;;;;;0.00;0.00;;;3.50;100.00;;;;;;4937782;28;20043;-78
2023/11/01 05:55:19;;;;;;;0.00;0.00;;;3.60;100.00;;;;;;4940567;28;20744;-78
2023/11/01 05:57:59;;;;;;;0.00;0.00;;;3.60;100.00;;;;;;4944440;28;20395;-77
2023/11/01 06:00:26;;;;;;;0.00;0.00;;;3.50;100.00;;;;;;4938875;28;20134;-77
2023/11/01 06:02:53;;;;;;;0.00;0.00;;;3.50;100.00;;;;;;4948173;28;20054;-78
2023/11/01 06:05:22;;;;;;;0.00;0.00;;;3.60;100.00;;;;;;4950814;28;20121;-78
2023/11/01 06:07:50;;;;;;;0.00;0.00;;;3.60;100.00;;;;;;4959457;28;20078;-77
2023/11/01 06:10:17;;;;;;;0.00;0.00;;;3.60;100.00;;;;;;4952797;28;20059;-77
2023/11/01 06:12:44;;;;;;;0.00;0.00;;;3.60;100.00;;;;;;4945472;28;20062;-77
2023/11/01 06:15:11;;;;;;;0.00;0.00;;;3.60;100.00;;;;;;4945677;28;20664;-81
2023/11/01 06:17:39;;;;;;;0.00;0.00;;;3.70;100.00;;;;;;4954670;28;20055;-80
2023/11/01 06:20:06;;;;;;;0.00;0.00;;;3.70;100.00;;;;;;4951192;28;20062;-81
2023/11/01 06:22:33;;;;;;;0.00;0.00;;;3.70;100.00;;;;;;4950776;28;20047;-81
2023/11/01 06:25:01;;;;;;;0.00;0.00;;;3.70;100.00;;;;;;4964130;23;20051;-73
2023/11/01 06:27:28;;;;;;;0.00;0.00;;;3.80;100.00;;;;;;4963489;28;20270;-72
2023/11/01 06:29:55;;;;;;;0.00;0.00;;;3.70;100.00;;;;;;4962768;28;20134;-70
2023/11/01 06:32:22;;;;;;;0.00;0.00;;;3.80;100.00;;;;;;4952888;28;20547;-72
2023/11/01 06:34:49;;;;;;;0.00;0.00;;;3.80;100.00;;;;;;4954728;28;20085;-73
2023/11/01 06:37:16;;;;;;;0.00;0.00;;;3.80;100.00;;;;;;4949679;28;20059;-73
2023/11/01 06:39:43;;;;;;;0.00;0.00;;;3.80;100.00;;;;;;4967437;28;20069;-73
2023/11/01 06:42:10;;;;;;;0.00;0.00;;;3.90;100.00;;;;;;4961929;28;20050;-74
2023/11/01 06:44:37;;;;;;;0.00;0.00;;;3.90;100.00;;;;;;4957142;28;20047;-73
2023/11/01 06:47:04;;;;;;;0.00;0.00;;;3.90;100.00;;;;;;4948716;28;20059;-73
2023/11/01 06:49:34;;;;;;;0.00;0.00;;;4.00;100.00;;;;;;4958640;28;20137;-72
2023/11/01 06:52:01;;;;;;;0.00;0.00;;;4.00;100.00;;;;;;4955111;28;20055;-72
2023/11/01 06:54:28;;;;;;;0.00;0.00;;;4.10;100.00;;;;;;4962939;28;20643;-72
2023/11/01 06:56:56;;;;;;;0.00;0.00;;;4.10;100.00;;;;;;4946969;28;20520;-71
2023/11/01 06:59:23;;;;;;;0.00;0.00;;;4.10;100.00;;;;;;4961394;28;20798;-71
2023/11/01 07:01:50;;;;;;;0.00;0.00;;;4.20;100.00;;;;;;4962912;28;20459;-71
2023/11/01 07:04:17;;;;;;;0.00;0.00;;;4.20;100.00;;;;;;4963033;28;20051;-71
2023/11/01 07:06:44;;;;;;;0.00;0.00;;;4.20;100.00;;;;;;4963271;28;20512;-71
2023/11/01 07:09:12;;;;;;;0.00;0.00;;;4.30;100.00;;;;;;4964930;28;20475;-71
2023/11/01 07:11:39;;;;;;;0.00;0.00;;;4.30;100.00;;;;;;4961914;28;20055;-71
2023/11/01 07:14:08;;;;;;;0.00;0.00;;;4.30;100.00;;;;;;4942624;28;20075;-71
2023/11/01 07:16:39;;;;;;;0.00;0.00;;;4.40;100.00;;;;;;4962345;28;20838;-71
2023/11/01 07:19:07;;;;;;;0.00;0.00;;;4.40;100.00;;;;;;4962720;28;20046;-71
2023/11/01 07:21:34;;;;;;;0.00;0.00;;;4.40;100.00;;;;;;4943070;28;20074;-71
2023/11/01 07:24:00;;;;;;;0.00;0.00;;;4.50;100.00;;;;;;4961452;28;20082;-71
2023/11/01 07:26:27;;;;;;;0.00;0.00;;;4.50;100.00;;;;;;4959860;28;20043;-71
2023/11/01 07:28:54;;;;;;;0.00;0.00;;;4.50;100.00;;;;;;4947460;28;20042;-70
2023/11/01 07:31:21;;;;;;;0.00;0.00;;;4.60;100.00;;;;;;4959524;28;20054;-70
2023/11/01 07:33:48;;;;;;;0.00;0.00;;;4.60;100.00;;;;;;4958158;28;20134;-70
2023/11/01 07:36:15;;;;;;;0.00;0.00;;;4.60;100.00;;;;;;4957321;28;20054;-70
2023/11/01 07:38:42;;;;;;;0.00;0.00;;;4.60;100.00;;;;;;4957262;28;20794;-70
2023/11/01 07:41:10;;;;;;;0.00;0.00;;;4.60;100.00;;;;;;4957403;28;20047;-70
2023/11/01 07:43:39;;;;;;;0.00;0.00;;;4.60;100.00;;;;;;4958346;28;20051;-70
2023/11/01 07:46:11;;;;;;;0.00;0.00;;;4.70;100.00;;;;;;4940388;28;20485;-70
2023/11/01 07:48:38;;;;;;;0.00;0.00;;;4.70;100.00;;;;;;4939174;28;20078;-70
2023/11/01 07:51:05;;;;;;;0.00;0.00;;;4.70;100.00;;;;;;4960029;28;20483;-70
2023/11/01 07:53:33;;;;;;;0.00;0.00;;;4.80;100.00;;;;;;4958400;28;20153;-70
2023/11/01 07:56:01;;;;;;;0.00;0.00;;;4.80;100.00;;;;;;4960506;28;20090;-70
2023/11/01 07:58:29;;;;;;;0.00;0.00;;;4.80;100.00;;;;;;4940024;28;20463;-70
2023/11/01 08:00:56;;;;;;;0.00;0.00;;;4.90;100.00;;;;;;4964432;28;20051;-76
2023/11/01 08:03:24;;;;;;;0.00;0.00;;;4.90;100.00;;;;;;4961196;28;20046;-77
2023/11/01 08:05:51;;;;;;;0.00;0.00;;;4.90;100.00;;;;;;4963221;28;20125;-76
2023/11/01 08:08:18;;;;;;;0.00;0.00;;;5.00;100.00;;;;;;4962048;28;20142;-77
2023/11/01 08:10:45;;;;;;;0.00;0.00;;;5.00;100.00;;;;;;4940938;28;20098;-77
2023/11/01 08:13:12;;;;;;;0.00;0.00;;;5.00;100.00;;;;;;4962967;28;20050;-76
2023/11/01 08:15:39;;;;;;;0.00;0.00;;;5.10;100.00;;;;;;4941473;28;20491;-80
2023/11/01 08:18:06;;;;;;;0.00;0.00;;;5.10;100.00;;;;;;4961091;28;20055;-79
2023/11/01 08:20:33;;;;;;;0.00;0.00;;;5.20;100.00;;;;;;4966739;28;20057;-81
2023/11/01 08:23:00;;;;;;;0.00;0.00;;;5.30;100.00;;;;;;4970796;28;20054;-80
2023/11/01 08:25:27;;;;;;;0.00;0.00;;;5.40;100.00;;;;;;4967419;28;20059;-80
2023/11/01 08:27:54;;;;;;;0.00;0.00;;;5.40;100.00;;;;;;4961759;28;20051;-79
2023/11/01 08:30:21;;;;;;;0.00;0.00;;;5.50;100.00;;;;;;4963169;28;20099;-81
2023/11/01 08:32:48;;;;;;;0.00;0.00;;;5.50;100.00;;;;;;4967286;28;20047;-80
2023/11/01 08:35:15;;;;;;;0.00;0.00;;;5.50;100.00;;;;;;4951938;28;20755;-81
2023/11/01 08:37:42;;;;;;;0.00;0.00;;;5.60;100.00;;;;;;4971588;28;20042;-79
2023/11/01 08:40:09;;;;;;;0.00;0.00;;;5.70;100.00;;;;;;4964864;28;20058;-79
2023/11/01 08:42:36;;;;;;;0.00;0.00;;;5.80;100.00;;;;;;4968763;28;20484;-80
2023/11/01 08:45:03;;;;;;;0.00;0.00;;;5.80;100.00;;;;;;4966174;28;20109;-81
2023/11/01 08:47:35;;;;;;;0.00;0.00;;;5.90;100.00;;;;;;4971636;28;20070;-81
2023/11/01 08:50:03;;;;;;;0.00;0.00;;;5.90;100.00;;;;;;4941356;28;20055;-82
2023/11/01 08:52:32;;;;;;;0.00;0.00;;;6.00;100.00;;;;;;4972707;28;20161;-81
2023/11/01 08:55:00;;;;;;;0.00;0.00;;;6.00;100.00;;;;;;4959446;28;20091;-81
2023/11/01 08:57:27;;;;;;;0.00;0.00;;;6.10;100.00;;;;;;4971458;28;20645;-81
2023/11/01 08:59:57;;;;;;;0.00;0.00;;;6.10;100.00;;;;;;4944059;28;20057;-80
2023/11/01 09:02:29;;;;;;;0.00;0.00;;;6.10;100.00;;;;;;4948384;28;20074;-79
2023/11/01 09:04:56;;;;;;;0.00;0.00;;;6.10;100.00;;;;;;4959861;28;20619;-80
2023/11/01 09:07:23;;;;;;;0.00;0.00;;;6.10;100.00;;;;;;4953764;28;20619;-80
2023/11/01 09:12:55;;;;;;;0.00;0.00;;;6.30;100.00;;;;;;4945725;28;20744;-79
2023/11/01 09:15:22;;;;;;;0.00;0.00;;;6.20;100.00;;;;;;4945593;28;20089;-81
2023/11/01 09:17:49;;;;;;;0.00;0.00;;;6.20;100.00;;;;;;4947662;28;20047;-79
2023/11/01 09:20:16;;;;;;;0.00;0.00;;;6.30;100.00;;;;;;4931461;28;20776;-79
2023/11/01 09:22:43;;;;;;;0.00;0.00;;;6.40;100.00;;;;;;4949952;28;20063;-80
2023/11/01 09:25:10;;;;;;;0.00;0.00;;;6.50;100.00;;;;;;4933680;28;20051;-80
2023/11/01 09:27:37;;;;;;;0.00;0.00;;;6.70;100.00;;;;;;4946469;28;20115;-72
2023/11/01 09:30:04;;;;;;;0.00;0.00;;;6.70;100.00;;;;;;4940921;28;20787;-72
2023/11/01 09:32:31;;;;;;;0.00;0.00;;;6.80;100.00;;;;;;4943533;28;20126;-73
2023/11/01 09:35:01;;;;;;;0.00;0.00;;;6.90;100.00;;;;;;4938507;28;20059;-72
2023/11/01 09:37:28;;;;;;;0.00;0.00;;;6.90;100.00;;;;;;4922283;29;20047;-72
2023/11/01 09:39:55;;;;;;;0.00;0.00;;;7.10;100.00;;;;;;4938725;28;20138;-72
2023/11/01 09:42:23;;;;;;;0.00;0.00;;;7.20;100.00;;;;;;4925877;28;20134;-72
2023/11/01 09:44:56;;;;;;;0.00;0.00;;;7.30;100.00;;;;;;4923180;29;20054;-72
2023/11/01 09:47:27;;;;;;;0.00;0.00;;;7.50;100.00;;;;;;4925563;28;20055;-72
2023/11/01 09:49:55;;;;;;;0.00;0.00;;;7.60;100.00;;;;;;4922223;29;20048;-72
2023/11/01 09:52:26;;;;;;;0.00;0.00;;;7.60;100.00;;;;;;4938285;28;20058;-72
2023/11/01 09:54:53;;;;;;;0.00;0.00;;;7.70;100.00;;;;;;4939367;28;20082;-72
2023/11/01 09:57:24;;;;;;;0.00;0.00;;;7.70;100.00;;;;;;4938651;28;20055;-72
2023/11/01 09:59:51;;;;;;;0.00;0.00;;;7.80;100.00;;;;;;4935639;28;20679;-72
2023/11/01 10:02:19;;;;;;;0.00;0.00;;;7.80;100.00;;;;;;4925205;29;20484;-72
2023/11/01 10:08:26;;;;;;;0.00;0.00;;;7.90;100.00;;;;;;4957871;23;20110;-72
2023/11/01 10:13:43;;;;;;;0.00;0.00;;;8.00;100.00;;;;;;4934765;28;20051;-78
2023/11/01 10:16:12;;;;;;;0.00;0.00;;;8.10;100.00;;;;;;4936645;28;20055;-78
2023/11/01 10:22:23;;;;;;;0.00;0.00;;;8.40;100.00;;;;;;4888227;29;20496;-76
2023/11/01 10:24:50;;;;;;;0.00;0.00;;;8.50;100.00;;;;;;4894528;29;20303;-77
2023/11/01 10:27:17;;;;;;;0.00;0.00;;;8.50;100.00;;;;;;4896669;29;20051;-76
2023/11/01 10:29:47;;;;;;;0.00;0.00;;;8.50;100.00;;;;;;4892346;29;20049;-76
2023/11/01 10:32:14;;;;;;;0.00;0.00;;;8.60;100.00;;;;;;4877351;29;20355;-76
2023/11/01 10:34:41;;;;;;;0.00;0.00;;;8.70;100.00;;;;;;4893090;29;20052;-76
2023/11/01 10:37:08;;;;;;;0.00;0.00;;;8.70;100.00;;;;;;4891858;29;20129;-76
2023/11/01 10:39:39;;;;;;;0.00;0.00;;;8.70;100.00;;;;;;4890871;29;20905;-77
2023/11/01 10:42:09;;;;;;;0.00;0.00;;;8.70;100.00;;;;;;4894522;29;20450;-76
2023/11/01 10:44:36;;;;;;;0.00;0.00;;;8.80;100.00;;;;;;4896284;29;20151;-76
2023/11/01 10:47:04;;;;;;;0.00;0.00;;;8.90;100.00;;;;;;4896621;29;20072;-76
2023/11/01 10:49:33;;;;;;;0.00;0.00;;;8.90;100.00;;;;;;4895365;29;20080;-76
2023/11/01 10:52:01;;;;;;;0.00;0.00;;;9.00;100.00;;;;;;4882880;29;20063;-78
2023/11/01 10:54:29;;;;;;;0.00;0.00;;;9.00;100.00;;;;;;4891447;29;20060;-77
2023/11/01 10:56:58;;;;;;;0.00;0.00;;;9.10;100.00;;;;;;4890250;29;20143;-77
2023/11/01 10:59:46;;;;;;;0.00;0.00;;;9.20;100.00;;;;;;4898204;29;20071;-78
2023/11/01 11:02:21;;;;;;;0.00;0.00;;;9.40;100.00;;;;;;4901771;29;20235;-77
2023/11/01 11:05:15;;;;;;;0.00;0.00;;;9.50;100.00;;;;;;4901421;29;20569;-78
2023/11/01 11:07:48;;;;;;;0.00;0.00;;;9.70;100.00;;;;;;4883804;29;20049;-72
2023/11/01 11:10:29;;;;;;;0.00;0.00;;;9.80;100.00;;;;;;4892796;29;20533;-72
2023/11/01 11:13:16;;;;;;;0.00;0.00;;;10.00;100.00;;;;;;4899503;29;20051;-72
2023/11/01 11:18:24;;;;;;;0.00;0.00;;;10.20;100.00;;;;;;4898914;29;20067;-72
2023/11/01 11:20:52;;;;;;;0.00;0.00;;;10.30;100.00;;;;;;4879537;29;20882;-72
2023/11/01 11:23:31;;;;;;;0.00;0.00;;;10.30;100.00;;;;;;4893528;29;20203;-72
2023/11/01 11:25:59;;;;;;;0.00;0.00;;;10.30;100.00;;;;;;4898401;29;20044;-73
2023/11/01 11:31:57;;;;;;;0.00;0.00;;;10.30;100.00;;;;;;4919886;29;20084;-73
2023/11/01 11:34:25;;;;;;;0.00;0.00;;;10.30;100.00;;;;;;4920432;29;20513;-73
2023/11/01 11:37:10;;;;;;;0.00;0.00;;;10.30;100.00;;;;;;4919752;29;20060;-73
2023/11/01 11:39:50;;;;;;;0.00;0.00;;;10.30;100.00;;;;;;4918976;29;20050;-73
2023/11/01 11:45:37;;;;;;;0.00;0.00;;;10.40;100.00;;;;;;4918332;29;20142;-73
2023/11/01 11:48:39;;;;;;;0.00;0.00;;;10.50;100.00;;;;;;4918476;29;20140;-73
2023/11/01 11:51:07;;;;;;;0.00;0.00;;;10.50;100.00;;;;;;4921580;29;20600;-73
2023/11/01 11:53:35;;;;;;;0.00;0.00;;;10.50;100.00;;;;;;4938574;23;20056;-77
2023/11/01 11:56:03;;;;;;;0.00;0.00;;;10.50;100.00;;;;;;4927623;29;20047;-78
2023/11/01 11:58:30;;;;;;;0.00;0.00;;;10.50;100.00;;;;;;4926417;29;20103;-77
2023/11/01 12:01:26;;;;;;;0.00;0.00;;;10.60;100.00;;;;;;4960028;29;20054;-77
2023/11/01 12:04:00;;;;;;;0.00;0.00;;;10.60;100.00;;;;;;4946623;28;20078;-78
2023/11/01 12:06:50;;;;;;;0.00;0.00;;;10.70;100.00;;;;;;4922419;29;20070;-78
2023/11/01 12:09:24;;;;;;;0.00;0.00;;;10.70;100.00;;;;;;4925022;29;20138;-78
2023/11/01 12:11:52;;;;;;;0.00;0.00;;;10.80;100.00;;;;;;4946163;29;20488;-79
2023/11/01 12:14:28;;;;;;;0.00;0.00;;;10.80;100.00;;;;;;4937557;29;20051;-78
2023/11/01 12:16:59;;;;;;;0.00;0.00;;;11.00;100.00;;;;;;4942912;29;20054;-79
2023/11/01 12:19:26;;;;;;;0.00;0.00;;;11.00;100.00;;;;;;4942372;28;20130;-79
2023/11/01 12:21:58;;;;;;;0.00;0.00;;;11.10;100.00;;;;;;4932280;29;20144;-80
2023/11/01 12:24:41;;;;;;;0.00;0.00;;;11.10;100.00;;;;;;4930396;28;20052;-79
2023/11/01 12:29:55;;;;;;;0.00;0.00;;;11.30;100.00;;;;;;4974133;23;20043;-72
2023/11/01 12:32:23;;;;;;;0.00;0.00;;;11.30;100.00;;;;;;4976272;23;20065;-71
2023/11/01 12:35:27;;;;;;;0.00;0.00;;;11.30;100.00;;;;;;4949885;23;20053;-80
2023/11/01 12:37:54;;;;;;;0.00;0.00;;;11.40;100.00;;;;;;4945967;29;20044;-78
2023/11/01 12:40:25;;;;;;;0.00;0.00;;;11.50;100.00;;;;;;4934761;28;20161;-79
2023/11/01 12:43:07;;;;;;;0.00;0.00;;;11.70;100.00;;;;;;4933548;28;20050;-78
2023/11/01 12:45:34;;;;;;;0.00;0.00;;;11.70;100.00;;;;;;4939075;29;20115;-79
2023/11/01 12:48:01;;;;;;;0.00;0.00;;;11.80;100.00;;;;;;4937032;28;20047;-78
2023/11/01 12:50:30;;;;;;;0.00;0.00;;;11.80;100.00;;;;;;4939415;28;20106;-78
2023/11/01 12:52:57;;;;;;;0.00;0.00;;;11.80;100.00;;;;;;4933472;28;20565;-82
2023/11/01 12:55:26;;;;;;;0.00;0.00;;;11.80;100.00;;;;;;4936668;28;20055;-82
2023/11/01 13:03:54;;;;;;;0.00;0.00;;;11.70;100.00;;;;;;4931737;29;20424;-80
2023/11/01 13:06:21;;;;;;;0.00;0.00;;;11.60;100.00;;;;;;4931822;29;20179;-79
2023/11/01 13:08:48;;;;;;;0.00;0.00;;;11.60;100.00;;;;;;4915237;29;20469;-79
2023/11/01 13:11:15;;;;;;;0.00;0.00;;;11.50;100.00;;;;;;4909336;29;20140;-81
2023/11/01 13:13:42;;;;;;;0.00;0.00;;;11.50;100.00;;;;;;4927540;29;20111;-80
2023/11/01 13:16:09;;;;;;;0.00;0.00;;;11.40;100.00;;;;;;4949688;23;20042;-82
2023/11/01 13:18:36;;;;;;;0.00;0.00;;;11.50;100.00;;;;;;4956425;28;20038;-80
2023/11/01 13:21:03;;;;;;;0.00;0.00;;;11.50;100.00;;;;;;4935072;29;20058;-80
2023/11/01 13:23:30;;;;;;;0.00;0.00;;;11.50;100.00;;;;;;4948987;28;20669;-80